createdAt,value
2023-03-20T00:00:01.920Z,3.28
2023-03-20T00:02:28.417Z,3.70
2023-03-20T00:04:57.373Z,3.22
2023-03-20T00:07:28.846Z,4.05
2023-03-20T00:09:57.947Z,4.32
2023-03-20T00:12:26.908Z,4.30
2023-03-20T00:14:53.489Z,4.80
2023-03-20T00:17:21.110Z,4.22
2023-03-20T00:19:47.761Z,3.88
2023-03-20T00:22:14.248Z,3.88
2023-03-20T00:24:41.107Z,4.03
2023-03-20T00:27:10.963Z,4.38
2023-03-20T00:29:37.394Z,4.60
2023-03-20T00:32:03.812Z,4.88
2023-03-20T00:34:31.660Z,4.13
2023-03-20T00:36:58.243Z,4.50
2023-03-20T00:39:24.848Z,4.40
2023-03-20T00:41:51.604Z,4.40
2023-03-20T00:44:30.436Z,4.53
2023-03-20T00:47:00.618Z,3.63
2023-03-20T00:49:32.594Z,4.45
2023-03-20T00:51:59.332Z,4.07
2023-03-20T00:54:25.739Z,4.18
2023-03-20T00:56:55.360Z,4.63
2023-03-20T00:59:25.052Z,4.25
2023-03-20T01:01:51.547Z,4.10
2023-03-20T01:04:19.534Z,5.20
2023-03-20T01:06:46.404Z,4.40
2023-03-20T01:09:12.937Z,5.53
2023-03-20T01:11:40.008Z,5.10
2023-03-20T01:14:11.853Z,5.10
2023-03-20T01:16:38.298Z,5.22
2023-03-20T01:19:04.726Z,5.43
2023-03-20T01:21:31.375Z,5.20
2023-03-20T01:23:57.838Z,6.18
2023-03-20T01:26:29.196Z,6.43
2023-03-20T01:28:55.578Z,6.35
2023-03-20T01:31:22.038Z,6.07
2023-03-20T01:33:48.470Z,5.70
2023-03-20T01:36:17.742Z,5.30
2023-03-20T01:38:44.176Z,4.80
2023-03-20T01:41:15.039Z,5.25
2023-03-20T01:43:41.408Z,5.50
2023-03-20T01:46:19.420Z,4.57
2023-03-20T01:48:52.584Z,4.82
2023-03-20T01:51:23.381Z,4.95
2023-03-20T01:53:52.913Z,4.40
2023-03-20T01:56:19.990Z,4.47
2023-03-20T01:58:49.437Z,4.05
2023-03-20T02:01:16.695Z,5.00
2023-03-20T02:03:44.566Z,4.07
2023-03-20T02:06:11.312Z,4.30
2023-03-20T02:08:41.955Z,4.63
2023-03-20T02:11:09.547Z,3.90
2023-03-20T02:13:36.014Z,4.18
2023-03-20T02:16:16.377Z,4.40
2023-03-20T02:18:44.453Z,4.32
2023-03-20T02:21:17.083Z,4.15
2023-03-20T02:24:02.347Z,5.05
2023-03-20T02:26:38.576Z,5.18
2023-03-20T02:29:17.243Z,4.47
2023-03-20T02:31:56.610Z,4.32
2023-03-20T02:34:42.339Z,4.77
2023-03-20T02:37:27.174Z,4.18
2023-03-20T02:39:59.622Z,4.78
2023-03-20T02:42:34.039Z,5.50
2023-03-20T02:45:12.828Z,4.60
2023-03-20T02:47:48.886Z,5.28
2023-03-20T02:50:18.230Z,5.97
2023-03-20T02:52:47.673Z,5.53
2023-03-20T02:55:21.553Z,5.07
2023-03-20T02:57:51.972Z,4.97
2023-03-20T03:00:24.575Z,4.45
2023-03-20T03:02:54.129Z,5.07
2023-03-20T03:05:25.327Z,5.32
2023-03-20T03:07:54.839Z,5.93
2023-03-20T03:10:27.343Z,5.60
2023-03-20T03:12:55.165Z,5.43
2023-03-20T03:15:31.105Z,6.13
2023-03-20T03:17:58.368Z,6.63
2023-03-20T03:20:27.842Z,5.90
2023-03-20T03:22:54.198Z,5.80
2023-03-20T03:25:23.876Z,7.40
2023-03-20T03:27:54.648Z,7.15
2023-03-20T03:30:26.042Z,6.03
2023-03-20T03:33:17.174Z,8.93
2023-03-20T03:35:44.092Z,8.48
2023-03-20T03:38:31.027Z,11.68
2023-03-20T03:41:19.605Z,14.82
2023-03-20T03:43:45.904Z,13.13
2023-03-20T03:46:19.923Z,16.63
2023-03-20T03:48:52.639Z,15.98
2023-03-20T03:51:22.537Z,17.27
2023-03-20T03:54:09.822Z,16.95
2023-03-20T03:56:38.556Z,16.38
2023-03-20T03:59:26.444Z,18.00
2023-03-20T04:01:54.259Z,20.90
2023-03-20T04:04:21.490Z,20.42
2023-03-20T04:06:47.876Z,22.00
2023-03-20T04:09:14.270Z,21.05
2023-03-20T04:11:40.916Z,20.10
2023-03-20T04:14:07.901Z,20.98
2023-03-20T04:16:34.314Z,23.92
2023-03-20T04:19:00.765Z,22.25
2023-03-20T04:21:27.196Z,22.73
2023-03-20T04:23:53.589Z,23.23
2023-03-20T04:26:21.459Z,22.63
2023-03-20T04:28:47.822Z,18.42
2023-03-20T04:31:14.285Z,21.45
2023-03-20T04:33:40.718Z,22.08
2023-03-20T04:36:08.137Z,22.33
2023-03-20T04:38:34.503Z,21.92
2023-03-20T04:41:00.924Z,22.52
2023-03-20T04:43:27.274Z,22.30
2023-03-20T04:45:53.699Z,21.65
2023-03-20T04:48:20.115Z,22.27
2023-03-20T04:50:48.408Z,25.52
2023-03-20T04:53:15.453Z,23.85
2023-03-20T04:55:41.821Z,24.58
2023-03-20T04:58:08.258Z,26.88
2023-03-20T05:00:34.634Z,24.13
2023-03-20T05:03:01.517Z,23.90
2023-03-20T05:05:29.429Z,25.23
2023-03-20T05:07:56.803Z,24.00
2023-03-20T05:10:23.157Z,24.60
2023-03-20T05:12:49.433Z,22.45
2023-03-20T05:15:15.809Z,25.77
2023-03-20T05:17:42.291Z,24.98
2023-03-20T05:20:09.318Z,25.45
2023-03-20T05:22:35.696Z,25.98
2023-03-20T05:25:02.057Z,24.50
2023-03-20T05:27:28.368Z,26.40
2023-03-20T05:29:54.670Z,24.85
2023-03-20T05:32:21.124Z,26.02
2023-03-20T05:34:47.667Z,27.52
2023-03-20T05:37:14.093Z,27.67
2023-03-20T05:39:40.449Z,27.27
2023-03-20T05:42:06.846Z,28.75
2023-03-20T05:44:33.201Z,25.50
2023-03-20T05:46:59.593Z,26.05
2023-03-20T05:49:25.956Z,28.63
2023-03-20T05:51:52.346Z,28.67
2023-03-20T05:54:18.765Z,26.02
2023-03-20T05:56:45.435Z,27.00
2023-03-20T05:59:12.118Z,26.35
2023-03-20T06:01:38.490Z,27.60
2023-03-20T06:04:04.928Z,24.90
2023-03-20T06:06:31.315Z,26.30
2023-03-20T06:08:57.669Z,27.20
2023-03-20T06:11:24.092Z,24.52
2023-03-20T06:13:54.514Z,24.23
2023-03-20T06:16:21.041Z,27.83
2023-03-20T06:18:47.418Z,25.75
2023-03-20T06:21:13.775Z,25.60
2023-03-20T06:23:40.574Z,26.75
2023-03-20T06:26:07.888Z,26.85
2023-03-20T06:28:34.444Z,29.10
2023-03-20T06:31:01.109Z,26.38
2023-03-20T06:33:27.502Z,26.40
2023-03-20T06:35:54.001Z,26.30
2023-03-20T06:38:20.459Z,25.10
2023-03-20T06:40:46.838Z,25.05
2023-03-20T06:43:13.248Z,25.30
2023-03-20T06:45:39.924Z,26.48
2023-03-20T06:48:07.104Z,24.17
2023-03-20T06:50:33.461Z,25.67
2023-03-20T06:52:59.864Z,25.67
2023-03-20T06:55:26.221Z,25.40
2023-03-20T06:57:52.598Z,26.48
2023-03-20T07:00:20.457Z,24.05
2023-03-20T07:02:47.281Z,25.35
2023-03-20T07:05:13.748Z,26.77
2023-03-20T07:07:40.217Z,24.92
2023-03-20T07:10:07.225Z,25.85
2023-03-20T07:12:34.458Z,26.38
2023-03-20T07:15:01.092Z,26.30
2023-03-20T07:17:27.720Z,25.38
2023-03-20T07:19:54.176Z,26.77
2023-03-20T07:22:26.243Z,26.25
2023-03-20T07:24:52.971Z,28.70
2023-03-20T07:27:51.599Z,24.63
2023-03-20T07:30:27.999Z,26.40
2023-03-20T07:33:33.363Z,27.25
2023-03-20T07:36:00.129Z,27.75
2023-03-20T07:38:26.842Z,25.92
2023-03-20T07:40:54.474Z,29.63
2023-03-20T07:43:21.262Z,26.52
2023-03-20T07:45:47.800Z,27.70
2023-03-20T07:48:17.069Z,28.73
2023-03-20T07:50:54.020Z,28.43
2023-03-20T07:53:23.270Z,26.52
2023-03-20T07:55:49.932Z,26.80
2023-03-20T07:58:19.437Z,28.25
2023-03-20T08:00:46.132Z,24.90
2023-03-20T08:03:12.938Z,26.05
2023-03-20T08:05:47.086Z,25.83
2023-03-20T08:08:18.063Z,24.23
2023-03-20T08:10:56.438Z,26.67
2023-03-20T08:13:39.940Z,26.13
2023-03-20T08:16:09.841Z,27.73
2023-03-20T08:18:48.486Z,28.00
2023-03-20T08:21:47.718Z,27.23
2023-03-20T08:24:28.096Z,26.98
2023-03-20T08:27:03.977Z,27.92
2023-03-20T08:29:41.919Z,29.33
2023-03-20T08:35:22.045Z,32.22
2023-03-20T08:45:58.237Z,32.90
2023-03-20T08:49:15.451Z,31.42
2023-03-20T08:54:45.435Z,33.53
2023-03-20T09:01:18.614Z,33.80
2023-03-20T09:06:43.958Z,34.72
2023-03-20T09:09:12.020Z,35.42
2023-03-20T09:14:45.717Z,33.58
2023-03-20T09:17:15.677Z,33.58
2023-03-20T09:19:44.641Z,31.48
2023-03-20T09:22:15.035Z,31.20
2023-03-20T09:24:53.933Z,33.25
2023-03-20T09:27:27.672Z,32.92
2023-03-20T09:29:59.697Z,34.03
2023-03-20T09:36:00.955Z,33.67
2023-03-20T09:38:27.706Z,35.42
2023-03-20T09:41:02.769Z,33.72
2023-03-20T09:43:47.613Z,32.67
2023-03-20T09:46:37.287Z,34.58
2023-03-20T09:52:16.214Z,37.35
2023-03-20T09:55:03.110Z,35.33
2023-03-20T09:57:37.793Z,34.28
2023-03-20T10:00:21.829Z,39.75
2023-03-20T10:02:58.213Z,43.42
2023-03-20T10:05:49.830Z,36.25
2023-03-20T10:08:26.326Z,34.15
2023-03-20T10:10:58.800Z,36.35
2023-03-20T10:13:35.973Z,33.65
2023-03-20T10:16:21.738Z,32.83
2023-03-20T10:19:01.031Z,36.65
2023-03-20T10:21:35.469Z,36.80
2023-03-20T10:24:18.401Z,34.95
2023-03-20T10:26:47.544Z,32.42
2023-03-20T10:29:29.858Z,36.20
2023-03-20T10:32:19.462Z,35.63
2023-03-20T10:35:00.460Z,34.63
2023-03-20T10:37:29.838Z,33.08
2023-03-20T10:40:15.610Z,35.75
2023-03-20T10:42:45.771Z,36.10
2023-03-20T10:47:52.479Z,30.92
2023-03-20T10:50:24.735Z,30.08
2023-03-20T10:53:01.025Z,30.52
2023-03-20T10:55:30.632Z,28.45
2023-03-20T10:58:04.785Z,28.38
2023-03-20T11:00:34.934Z,25.63
2023-03-20T11:03:05.751Z,24.10
2023-03-20T11:05:36.943Z,22.02
2023-03-20T11:08:07.583Z,22.38
2023-03-20T11:10:38.765Z,18.88
2023-03-20T11:13:24.260Z,18.58
2023-03-20T11:15:52.249Z,19.65
2023-03-20T11:18:28.560Z,19.58
2023-03-20T11:20:56.393Z,16.35
2023-03-20T11:23:47.612Z,17.02
2023-03-20T11:26:18.932Z,16.33
2023-03-20T11:28:53.600Z,16.10
2023-03-20T11:31:25.031Z,15.85
2023-03-20T11:33:59.838Z,14.40
2023-03-20T11:36:28.332Z,13.23
2023-03-20T11:38:58.735Z,14.32
2023-03-20T11:41:29.492Z,13.00
2023-03-20T11:43:56.090Z,12.43
2023-03-20T11:46:23.957Z,12.65
2023-03-20T11:49:02.671Z,12.00
2023-03-20T11:51:35.471Z,12.48
2023-03-20T11:54:04.364Z,11.35
2023-03-20T11:56:33.053Z,12.05
2023-03-20T11:59:04.509Z,11.98
2023-03-20T12:01:45.062Z,11.27
2023-03-20T12:04:32.045Z,11.30
2023-03-20T12:07:13.216Z,10.13
2023-03-20T12:09:43.020Z,10.88
2023-03-20T12:12:28.723Z,11.20
2023-03-20T12:15:08.153Z,10.45
2023-03-20T12:17:42.963Z,10.70
2023-03-20T12:20:23.816Z,10.98
2023-03-20T12:23:23.645Z,9.93
2023-03-20T12:26:22.197Z,12.45
2023-03-20T12:29:02.986Z,9.07
2023-03-20T12:31:48.273Z,11.68
2023-03-20T12:34:49.469Z,10.05
2023-03-20T12:37:19.002Z,11.40
2023-03-20T12:40:07.714Z,10.00
2023-03-20T12:43:11.082Z,10.50
2023-03-20T12:45:45.062Z,10.75
2023-03-20T12:48:30.478Z,10.90
2023-03-20T12:51:08.793Z,10.50
2023-03-20T12:53:53.606Z,10.52
2023-03-20T12:56:20.142Z,11.32
2023-03-20T12:59:06.619Z,10.60
2023-03-20T13:01:45.611Z,10.40
2023-03-20T13:04:42.830Z,11.80
2023-03-20T13:07:15.716Z,10.75
2023-03-20T13:09:59.857Z,10.63
2023-03-20T13:12:29.360Z,11.43
2023-03-20T13:15:08.076Z,10.75
2023-03-20T13:17:38.885Z,10.52
2023-03-20T13:20:27.557Z,11.05
2023-03-20T13:22:57.102Z,11.27
2023-03-20T13:25:40.094Z,11.40
2023-03-20T13:28:27.096Z,11.45
2023-03-20T13:31:14.105Z,10.85
2023-03-20T13:34:07.715Z,11.20
2023-03-20T13:36:41.442Z,12.65
2023-03-20T13:39:27.811Z,10.57
2023-03-20T13:41:59.226Z,11.35
2023-03-20T13:44:28.348Z,10.40
2023-03-20T13:47:09.033Z,11.87
2023-03-20T13:49:42.186Z,11.30
2023-03-20T13:52:22.682Z,11.32
2023-03-20T13:55:11.806Z,10.73
2023-03-20T13:57:57.015Z,11.13
2023-03-20T14:00:43.566Z,10.98
2023-03-20T14:03:25.983Z,9.95
2023-03-20T14:05:52.814Z,10.00
2023-03-20T14:08:41.805Z,10.07
2023-03-20T14:11:08.930Z,8.95
2023-03-20T14:13:36.074Z,10.25
2023-03-20T14:16:07.655Z,10.00
2023-03-20T14:18:34.274Z,11.00
2023-03-20T14:21:02.450Z,10.95
2023-03-20T14:23:36.737Z,10.70
2023-03-20T14:26:30.649Z,10.38
2023-03-20T14:29:34.591Z,9.38
2023-03-20T14:38:54.522Z,9.60
2023-03-20T14:41:45.167Z,11.40
2023-03-20T14:44:18.060Z,10.75
2023-03-20T14:46:46.334Z,10.25
2023-03-20T14:49:23.854Z,9.98
2023-03-20T14:51:53.702Z,10.55
2023-03-20T14:54:30.961Z,9.75
2023-03-20T14:57:12.394Z,8.93
2023-03-20T14:59:43.792Z,8.35
2023-03-20T15:02:24.576Z,8.85
2023-03-20T15:04:52.393Z,7.28
2023-03-20T15:07:37.100Z,8.88
2023-03-20T15:10:05.103Z,8.05
2023-03-20T15:12:35.035Z,7.85
2023-03-20T15:15:03.291Z,6.43
2023-03-20T15:17:40.259Z,6.30
2023-03-20T15:20:09.769Z,6.22
2023-03-20T15:22:47.732Z,7.75
2023-03-20T15:25:16.484Z,5.45
2023-03-20T15:27:42.899Z,5.53
2023-03-20T15:30:10.588Z,4.28
2023-03-20T15:32:37.015Z,4.05
2023-03-20T15:35:05.224Z,4.13
2023-03-20T15:37:41.675Z,4.65
2023-03-20T15:40:13.115Z,4.32
2023-03-20T15:42:39.462Z,3.08
2023-03-20T15:45:22.677Z,3.75
2023-03-20T15:47:48.943Z,2.90
2023-03-20T15:50:16.564Z,2.38
2023-03-20T15:52:52.992Z,3.08
2023-03-20T15:55:20.889Z,3.13
2023-03-20T15:57:50.318Z,2.85
2023-03-20T16:00:26.131Z,2.92
2023-03-20T16:02:53.680Z,2.58
2023-03-20T16:05:22.205Z,2.85
2023-03-20T16:07:48.572Z,2.88
2023-03-20T16:10:25.757Z,3.10
2023-03-20T16:12:55.210Z,2.65
2023-03-20T16:15:24.997Z,2.47
2023-03-20T16:17:57.452Z,2.80
2023-03-20T16:20:26.175Z,2.83
2023-03-20T16:22:55.414Z,3.25
2023-03-20T16:25:23.992Z,4.40
2023-03-20T16:27:51.179Z,3.97
2023-03-20T16:30:25.387Z,3.63
2023-03-20T16:33:02.187Z,3.75
2023-03-20T16:35:40.449Z,4.35
2023-03-20T16:38:16.542Z,3.60
2023-03-20T16:40:42.928Z,3.63
2023-03-20T16:43:20.107Z,3.88
2023-03-20T16:45:49.350Z,4.43
2023-03-20T16:48:21.559Z,5.00
2023-03-20T16:50:53.121Z,4.07
2023-03-20T16:53:20.392Z,3.92
2023-03-20T16:55:48.166Z,4.85
2023-03-20T16:58:23.012Z,4.80
2023-03-20T17:00:57.307Z,4.32
2023-03-20T17:03:27.876Z,4.38
2023-03-20T17:05:57.858Z,4.65
2023-03-20T17:08:45.432Z,5.63
2023-03-20T17:11:13.562Z,4.75
2023-03-20T17:13:41.329Z,6.00
2023-03-20T17:19:32.453Z,6.60
2023-03-20T17:22:03.489Z,6.57
2023-03-20T17:24:29.988Z,6.05
2023-03-20T17:26:57.165Z,6.55
2023-03-20T17:29:23.541Z,7.00
2023-03-20T17:31:50.086Z,5.80
2023-03-20T17:34:16.532Z,6.80
2023-03-20T17:36:43.780Z,6.45
2023-03-20T17:39:15.340Z,7.63
2023-03-20T17:41:41.721Z,6.15
2023-03-20T17:44:08.961Z,6.35
2023-03-20T17:46:46.265Z,7.68
2023-03-20T17:49:28.392Z,6.13
2023-03-20T17:51:57.009Z,6.72
2023-03-20T17:54:23.423Z,6.93
2023-03-20T17:56:49.825Z,7.93
2023-03-20T17:59:16.378Z,7.13
2023-03-20T18:01:42.871Z,7.65
2023-03-20T18:04:09.312Z,8.15
2023-03-20T18:06:35.697Z,8.20
2023-03-20T18:09:02.487Z,7.63
2023-03-20T18:11:29.003Z,9.27
2023-03-20T18:13:55.606Z,7.80
2023-03-20T18:16:26.285Z,7.63
2023-03-20T18:18:53.086Z,8.50
2023-03-20T18:21:19.478Z,8.13
2023-03-20T18:23:45.970Z,9.15
2023-03-20T18:26:23.656Z,7.43
2023-03-20T21:09:03.164Z,4.30
2023-03-20T21:11:29.851Z,3.17
2023-03-20T21:13:56.228Z,3.95
2023-03-20T21:16:23.242Z,3.35
2023-03-20T21:18:49.760Z,4.22
2023-03-20T21:21:16.353Z,4.68
2023-03-20T21:23:42.778Z,4.95
2023-03-20T21:26:09.453Z,4.53
2023-03-20T21:28:36.541Z,3.80
2023-03-20T21:31:23.224Z,4.13
2023-03-20T21:33:51.494Z,5.25
2023-03-20T21:36:18.113Z,5.63
2023-03-20T21:39:09.052Z,4.65
2023-03-20T21:41:39.754Z,4.93
2023-03-20T21:44:06.967Z,4.22
2023-03-20T21:47:09.682Z,5.78
2023-03-20T22:03:37.022Z,6.40
2023-03-20T22:06:57.191Z,6.57
2023-03-20T22:15:16.373Z,6.85
2023-03-20T22:20:42.251Z,5.78
2023-03-20T22:23:29.297Z,5.78
2023-03-20T22:26:20.945Z,7.15
2023-03-20T22:29:11.815Z,5.88
2023-03-20T22:34:39.982Z,5.78
2023-03-20T22:45:09.783Z,5.13
2023-03-20T22:47:36.675Z,5.72
2023-03-20T22:50:03.061Z,4.82
2023-03-20T22:52:45.432Z,6.20
2023-03-20T22:55:14.301Z,5.13
2023-03-20T22:57:47.570Z,6.40
2023-03-20T23:00:19.108Z,5.57
2023-03-20T23:02:47.630Z,5.78
2023-03-20T23:05:13.997Z,5.63
2023-03-20T23:07:40.677Z,6.68
2023-03-20T23:10:10.452Z,5.78
2023-03-20T23:12:37.998Z,3.58
2023-03-20T23:15:04.986Z,5.72
2023-03-20T23:17:32.304Z,5.78
2023-03-20T23:20:10.345Z,5.10
2023-03-20T23:22:37.139Z,5.38
2023-03-20T23:25:13.302Z,5.65
2023-03-20T23:27:44.805Z,5.60
2023-03-20T23:30:11.546Z,4.80
2023-03-20T23:32:38.768Z,5.75
2023-03-20T23:35:05.727Z,5.50
2023-03-20T23:37:32.295Z,5.25
2023-03-20T23:39:58.605Z,4.65
2023-03-20T23:42:30.674Z,5.45
2023-03-20T23:45:02.155Z,5.15
2023-03-20T23:47:44.227Z,4.45
2023-03-20T23:50:14.626Z,5.32
2023-03-20T23:52:49.970Z,4.63
2023-03-20T23:55:23.738Z,4.13
2023-03-20T23:57:50.277Z,4.25
